createdAt,value
2022-12-15T00:00:20.488Z,26.63
2022-12-15T00:03:05.949Z,26.10
2022-12-15T00:05:52.933Z,26.43
2022-12-15T00:08:38.457Z,26.43
2022-12-15T00:11:24.073Z,22.17
2022-12-15T00:14:09.595Z,21.70
2022-12-15T00:16:55.425Z,22.10
2022-12-15T00:19:40.861Z,24.67
2022-12-15T00:22:26.569Z,28.20
2022-12-15T00:25:12.750Z,23.50
2022-12-15T00:27:58.061Z,25.77
2022-12-15T00:30:43.262Z,26.20
2022-12-15T00:33:31.051Z,24.67
2022-12-15T00:36:19.741Z,24.93
2022-12-15T00:38:47.504Z,26.77
2022-12-15T00:41:17.693Z,27.37
2022-12-15T00:43:46.309Z,26.00
2022-12-15T00:46:32.658Z,22.13
2022-12-15T00:49:00.139Z,25.30
2022-12-15T00:51:45.801Z,22.53
2022-12-15T00:54:31.162Z,25.67
2022-12-15T00:57:16.249Z,23.93
2022-12-15T01:00:01.478Z,26.27
2022-12-15T01:02:47.210Z,28.90
2022-12-15T01:05:33.180Z,25.10
2022-12-15T01:08:18.997Z,26.93
2022-12-15T01:11:04.325Z,22.20
2022-12-15T01:13:50.109Z,25.87
2022-12-15T01:16:36.350Z,25.03
2022-12-15T01:19:22.195Z,25.77
2022-12-15T01:21:49.750Z,24.57
2022-12-15T01:24:16.870Z,27.57
2022-12-15T01:26:43.884Z,23.73
2022-12-15T01:29:10.827Z,25.83
2022-12-15T01:31:37.744Z,25.70
2022-12-15T01:34:04.983Z,27.03
2022-12-15T01:36:31.902Z,25.30
2022-12-15T01:38:58.857Z,24.60
2022-12-15T01:41:25.810Z,21.67
2022-12-15T01:43:52.814Z,27.33
2022-12-15T01:46:23.631Z,25.10
2022-12-15T01:49:30.359Z,24.87
2022-12-15T01:52:00.688Z,28.63
2022-12-15T01:54:57.829Z,23.43
2022-12-15T01:57:29.627Z,26.33
2022-12-15T02:00:02.043Z,25.53
2022-12-15T02:02:34.413Z,23.77
2022-12-15T02:05:06.230Z,24.27
2022-12-15T02:07:33.198Z,26.07
2022-12-15T02:10:04.240Z,23.60
2022-12-15T02:13:03.298Z,24.80
2022-12-15T02:15:50.889Z,24.97
2022-12-15T02:18:37.338Z,27.90
2022-12-15T02:21:10.497Z,25.33
2022-12-15T02:24:31.854Z,26.03
2022-12-15T02:27:59.157Z,30.40
2022-12-15T02:31:14.032Z,25.27
2022-12-15T02:34:00.726Z,27.87
2022-12-15T02:36:39.286Z,22.23
2022-12-15T02:39:06.477Z,22.67
2022-12-15T02:41:35.337Z,25.30
2022-12-15T02:44:42.203Z,29.43
2022-12-15T02:47:39.810Z,24.63
2022-12-15T02:50:18.562Z,23.90
2022-12-15T02:53:07.770Z,23.03
2022-12-15T02:55:59.110Z,25.30
2022-12-15T02:58:52.967Z,23.43
2022-12-15T03:01:42.945Z,25.37
2022-12-15T03:04:12.321Z,24.60
2022-12-15T03:06:39.720Z,25.30
2022-12-15T03:09:06.700Z,22.73
2022-12-15T03:11:34.137Z,23.77
2022-12-15T03:14:01.031Z,22.07
2022-12-15T03:16:27.969Z,26.10
2022-12-15T03:18:54.873Z,25.03
2022-12-15T03:21:21.785Z,24.57
2022-12-15T03:23:48.771Z,26.30
2022-12-15T03:26:16.404Z,23.90
2022-12-15T03:28:43.388Z,24.93
2022-12-15T03:31:10.294Z,25.40
2022-12-15T03:33:37.192Z,24.80
2022-12-15T03:36:04.750Z,23.43
2022-12-15T03:38:32.674Z,26.90
2022-12-15T03:40:59.621Z,25.60
2022-12-15T03:43:26.545Z,24.10
2022-12-15T03:45:53.566Z,29.53
2022-12-15T03:48:20.474Z,24.10
2022-12-15T03:50:50.026Z,23.53
2022-12-15T03:53:17.039Z,27.77
2022-12-15T03:55:44.005Z,25.00
2022-12-15T03:58:10.971Z,29.90
2022-12-15T04:00:38.019Z,25.23
2022-12-15T04:03:05.294Z,23.97
2022-12-15T04:05:34.995Z,26.83
2022-12-15T04:08:02.476Z,25.63
2022-12-15T04:10:34.755Z,23.40
2022-12-15T04:13:12.603Z,24.87
2022-12-15T04:15:40.713Z,24.07
2022-12-15T04:18:10.536Z,22.20
2022-12-15T04:20:40.092Z,27.97
2022-12-15T04:23:10.664Z,25.07
2022-12-15T04:25:56.928Z,27.73
2022-12-15T04:28:43.262Z,25.53
2022-12-15T04:31:38.514Z,22.27
2022-12-15T04:34:28.594Z,25.43
2022-12-15T04:37:13.922Z,25.80
2022-12-15T04:40:04.334Z,29.43
2022-12-15T04:42:52.313Z,23.60
2022-12-15T04:45:41.591Z,24.47
2022-12-15T04:48:27.595Z,25.10
2022-12-15T04:51:13.673Z,25.57
2022-12-15T04:53:59.609Z,28.80
2022-12-15T04:56:45.387Z,25.90
2022-12-15T04:59:30.725Z,22.90
2022-12-15T05:02:16.241Z,26.33
2022-12-15T05:05:01.486Z,27.73
2022-12-15T05:07:46.808Z,26.30
2022-12-15T05:10:32.074Z,24.87
2022-12-15T05:13:27.808Z,24.20
2022-12-15T05:16:13.336Z,24.60
2022-12-15T05:18:58.641Z,25.10
2022-12-15T05:21:43.904Z,28.17
2022-12-15T05:24:29.251Z,25.50
2022-12-15T05:27:14.408Z,29.40
2022-12-15T05:29:59.686Z,24.47
2022-12-15T05:32:26.635Z,26.27
2022-12-15T05:34:53.606Z,27.20
2022-12-15T05:37:21.733Z,27.13
2022-12-15T05:39:48.657Z,24.90
2022-12-15T05:42:15.654Z,23.90
2022-12-15T05:44:43.230Z,26.30
2022-12-15T05:47:11.711Z,30.30
2022-12-15T05:49:38.592Z,29.03
2022-12-15T05:52:06.633Z,26.87
2022-12-15T05:54:33.591Z,26.63
2022-12-15T05:57:00.543Z,28.07
2022-12-15T05:59:27.510Z,28.33
2022-12-15T06:01:54.530Z,26.73
2022-12-15T06:04:21.558Z,26.00
2022-12-15T06:06:48.455Z,29.30
2022-12-15T06:09:15.443Z,26.73
2022-12-15T06:11:43.671Z,28.43
2022-12-15T06:14:10.596Z,29.17
2022-12-15T06:16:44.243Z,25.10
2022-12-15T06:19:19.260Z,27.73
2022-12-15T06:21:46.198Z,25.50
2022-12-15T06:24:15.695Z,27.73
2022-12-15T06:26:42.573Z,21.30
2022-12-15T06:29:12.429Z,25.47
2022-12-15T06:31:41.292Z,25.63
2022-12-15T06:34:12.777Z,28.30
2022-12-15T06:36:40.055Z,29.40
2022-12-15T06:39:10.689Z,27.50
2022-12-15T06:41:38.739Z,26.17
2022-12-15T06:44:06.030Z,29.97
2022-12-15T06:46:35.065Z,29.43
2022-12-15T06:49:02.426Z,25.93
2022-12-15T06:51:29.912Z,33.07
2022-12-15T06:53:56.930Z,27.93
2022-12-15T06:56:38.779Z,25.53
2022-12-15T06:59:07.884Z,30.37
2022-12-15T07:01:35.652Z,28.03
2022-12-15T07:04:05.414Z,27.77
2022-12-15T07:06:36.906Z,28.00
2022-12-15T07:09:07.418Z,31.50
2022-12-15T07:11:35.458Z,27.77
2022-12-15T07:14:03.111Z,27.80
2022-12-15T07:16:31.128Z,27.63
2022-12-15T07:18:58.117Z,32.37
2022-12-15T07:21:25.039Z,24.73
2022-12-15T07:23:55.375Z,26.60
2022-12-15T07:26:24.435Z,29.20
2022-12-15T07:28:52.958Z,30.50
2022-12-15T07:31:19.970Z,24.70
2022-12-15T07:33:48.426Z,30.50
2022-12-15T07:36:15.894Z,27.47
2022-12-15T07:38:42.861Z,27.37
2022-12-15T07:41:10.454Z,31.67
2022-12-15T07:43:37.984Z,28.47
2022-12-15T07:46:06.259Z,27.90
2022-12-15T07:48:33.877Z,27.60
2022-12-15T07:51:11.080Z,24.80
2022-12-15T07:53:39.912Z,22.70
2022-12-15T07:56:09.278Z,32.90
2022-12-15T07:58:38.517Z,27.53
2022-12-15T08:01:10.165Z,27.83
2022-12-15T08:03:38.485Z,27.60
2022-12-15T08:06:11.367Z,26.00
2022-12-15T08:08:39.580Z,28.50
2022-12-15T08:11:08.262Z,27.60
2022-12-15T08:16:23.817Z,25.87
2022-12-15T08:18:50.817Z,29.00
2022-12-15T08:21:18.125Z,28.03
2022-12-15T08:23:45.233Z,33.60
2022-12-15T08:26:15.716Z,27.00
2022-12-15T08:28:43.767Z,22.53
2022-12-15T08:31:17.816Z,27.10
2022-12-15T08:33:45.719Z,26.63
2022-12-15T08:36:17.607Z,25.10
2022-12-15T08:38:46.100Z,26.70
2022-12-15T08:41:23.297Z,29.63
2022-12-15T08:43:51.795Z,28.63
2022-12-15T08:46:22.612Z,26.80
2022-12-15T08:48:50.638Z,30.47
2022-12-15T08:51:18.098Z,30.80
2022-12-15T08:53:46.021Z,25.57
2022-12-15T08:56:17.026Z,28.27
2022-12-15T08:58:45.837Z,27.20
2022-12-15T09:01:23.214Z,30.40
2022-12-15T09:03:53.843Z,32.27
2022-12-15T09:06:34.331Z,34.13
2022-12-15T09:09:05.100Z,33.50
2022-12-15T09:11:32.251Z,29.70
2022-12-15T09:13:59.807Z,32.40
2022-12-15T09:16:27.966Z,29.80
2022-12-15T09:18:58.366Z,29.20
2022-12-15T09:21:28.927Z,25.80
2022-12-15T09:24:00.601Z,29.33
2022-12-15T09:26:34.146Z,29.97
2022-12-15T09:29:02.049Z,31.47
2022-12-15T09:31:37.031Z,28.10
2022-12-15T09:34:03.996Z,25.40
2022-12-15T09:36:35.251Z,26.90
2022-12-15T09:39:03.038Z,25.90
2022-12-15T09:41:33.430Z,25.47
2022-12-15T09:44:18.297Z,26.20
2022-12-15T09:47:15.833Z,28.23
2022-12-15T09:49:56.315Z,25.27
2022-12-15T09:52:35.790Z,24.00
2022-12-15T09:55:17.080Z,28.77
2022-12-15T09:57:54.277Z,28.30
2022-12-15T10:00:27.702Z,26.37
2022-12-15T10:03:24.904Z,26.63
2022-12-15T10:06:16.715Z,29.97
2022-12-15T10:08:50.809Z,26.37
2022-12-15T10:11:27.034Z,25.87
2022-12-15T10:14:31.093Z,24.50
2022-12-15T10:17:11.697Z,22.73
2022-12-15T10:20:15.440Z,28.67
2022-12-15T10:22:42.340Z,29.27
2022-12-15T10:25:29.716Z,26.70
2022-12-15T10:28:15.905Z,28.73
2022-12-15T10:31:25.648Z,32.10
2022-12-15T10:34:09.191Z,27.37
2022-12-15T10:36:36.676Z,29.80
2022-12-15T10:39:03.839Z,28.03
2022-12-15T10:41:33.864Z,32.13
2022-12-15T10:44:02.639Z,32.60
2022-12-15T10:46:31.842Z,31.03
2022-12-15T10:49:08.080Z,31.63
2022-12-15T10:51:53.191Z,28.67
2022-12-15T10:54:20.901Z,27.50
2022-12-15T10:56:57.501Z,32.17
2022-12-15T10:59:38.011Z,28.83
2022-12-15T11:02:34.262Z,30.90
2022-12-15T11:05:18.183Z,28.50
2022-12-15T11:07:50.821Z,30.83
2022-12-15T11:10:51.423Z,31.73
2022-12-15T11:13:22.224Z,28.90
2022-12-15T11:15:51.428Z,31.80
2022-12-15T11:18:37.200Z,28.30
2022-12-15T11:21:15.561Z,27.90
2022-12-15T11:24:14.018Z,27.97
2022-12-15T11:27:17.118Z,27.10
2022-12-15T11:29:54.399Z,32.63
2022-12-15T11:32:26.693Z,32.53
2022-12-15T11:34:54.070Z,27.90
2022-12-15T11:37:57.156Z,30.80
2022-12-15T11:40:40.798Z,33.70
2022-12-15T11:43:35.608Z,28.23
2022-12-15T11:46:27.973Z,34.53
2022-12-15T11:49:23.342Z,28.47
2022-12-15T11:52:00.794Z,32.43
2022-12-15T11:54:55.617Z,29.07
2022-12-15T11:57:54.682Z,32.63
2022-12-15T12:00:23.399Z,26.63
2022-12-15T12:03:15.087Z,28.60
2022-12-15T12:06:40.009Z,30.07
2022-12-15T12:09:54.259Z,31.53
2022-12-15T12:12:38.234Z,21.83
2022-12-15T12:15:14.394Z,33.93
2022-12-15T12:17:52.114Z,29.00
2022-12-15T12:20:25.292Z,31.63
2022-12-15T12:23:11.222Z,28.73
2022-12-15T12:26:04.566Z,34.47
2022-12-15T12:28:50.862Z,34.43
2022-12-15T12:32:04.865Z,35.30
2022-12-15T12:34:40.321Z,35.43
2022-12-15T12:37:32.318Z,32.87
2022-12-15T12:40:07.738Z,34.03
2022-12-15T12:42:54.948Z,35.23
2022-12-15T12:45:30.041Z,34.57
2022-12-15T12:48:03.712Z,35.40
2022-12-15T12:50:32.518Z,43.20
2022-12-15T12:53:02.563Z,41.33
2022-12-15T12:55:42.751Z,38.03
2022-12-15T12:58:39.541Z,37.13
2022-12-15T13:01:30.982Z,37.47
2022-12-15T13:04:38.630Z,34.50
2022-12-15T13:07:32.048Z,40.57
2022-12-15T13:10:07.817Z,37.73
2022-12-15T13:12:52.572Z,39.73
2022-12-15T13:15:29.267Z,40.17
2022-12-15T13:18:14.151Z,41.40
2022-12-15T13:20:43.097Z,38.90
2022-12-15T13:23:22.177Z,39.87
2022-12-15T13:25:57.863Z,43.53
2022-12-15T13:28:42.693Z,35.30
2022-12-15T13:31:19.988Z,36.40
2022-12-15T13:33:52.846Z,37.90
2022-12-15T13:36:54.459Z,40.60
2022-12-15T13:39:28.093Z,34.03
2022-12-15T13:42:31.400Z,47.87
2022-12-15T13:44:48.889Z,40.57
2022-12-15T13:47:26.322Z,44.63
2022-12-15T13:50:10.902Z,38.70
2022-12-15T13:55:56.622Z,38.07
2022-12-15T13:58:25.052Z,35.47
2022-12-15T14:00:56.601Z,32.47
2022-12-15T14:03:24.214Z,40.40
2022-12-15T14:05:55.657Z,38.93
2022-12-15T14:08:25.696Z,37.50
2022-12-15T14:11:16.632Z,38.47
2022-12-15T14:16:36.151Z,41.43
2022-12-15T14:19:23.751Z,37.23
2022-12-15T14:21:59.492Z,41.07
2022-12-15T14:24:41.176Z,43.00
2022-12-15T14:27:08.496Z,39.80
2022-12-15T14:29:35.569Z,41.70
2022-12-15T14:32:02.971Z,42.93
2022-12-15T14:34:39.927Z,39.37
2022-12-15T14:37:16.578Z,43.53
2022-12-15T14:39:50.164Z,40.60
2022-12-15T14:42:26.578Z,41.23
2022-12-15T14:44:57.734Z,38.57
2022-12-15T14:47:30.125Z,36.50
2022-12-15T14:49:58.465Z,40.77
2022-12-15T14:52:40.041Z,39.50
2022-12-15T14:55:34.398Z,43.77
2022-12-15T14:58:03.450Z,38.70
2022-12-15T15:00:35.507Z,41.03
2022-12-15T15:03:05.834Z,38.87
2022-12-15T15:03:39.824Z,44.97
2022-12-15T15:06:18.321Z,40.60
2022-12-15T15:08:51.229Z,45.87
2022-12-15T15:11:35.969Z,44.83
2022-12-15T15:14:32.946Z,41.60
2022-12-15T15:17:14.652Z,39.83
2022-12-15T15:19:50.968Z,39.80
2022-12-15T15:22:46.167Z,43.03
2022-12-15T15:25:39.254Z,38.67
2022-12-15T15:28:19.245Z,43.03
2022-12-15T15:30:56.516Z,43.47
2022-12-15T15:33:25.068Z,50.80
2022-12-15T15:35:56.276Z,39.50
2022-12-15T15:38:41.475Z,39.63
2022-12-15T15:41:14.541Z,40.27
2022-12-15T15:43:42.594Z,41.73
2022-12-15T15:46:19.031Z,44.97
2022-12-15T15:48:51.359Z,40.17
2022-12-15T15:51:19.213Z,39.83
2022-12-15T15:53:46.625Z,39.10
2022-12-15T15:56:16.445Z,40.70
2022-12-15T15:58:44.201Z,44.53
2022-12-15T16:01:13.515Z,35.17
2022-12-15T16:03:41.943Z,45.70
2022-12-15T16:06:21.425Z,39.03
2022-12-15T16:08:53.852Z,40.87
2022-12-15T16:11:26.805Z,43.03
2022-12-15T16:13:53.738Z,41.50
2022-12-15T16:16:24.497Z,40.23
2022-12-15T16:18:51.477Z,40.63
2022-12-15T16:21:27.752Z,37.93
2022-12-15T16:23:57.189Z,35.43
2022-12-15T16:26:34.032Z,40.00
2022-12-15T16:29:00.956Z,38.20
2022-12-15T16:31:41.671Z,34.83
2022-12-15T16:34:09.061Z,41.40
2022-12-15T16:36:36.213Z,39.93
2022-12-15T16:39:04.262Z,44.73
2022-12-15T16:41:31.413Z,37.73
2022-12-15T16:43:58.638Z,45.80
2022-12-15T16:46:26.049Z,40.10
2022-12-15T16:48:53.616Z,38.47
2022-12-15T16:51:39.285Z,40.13
2022-12-15T16:54:06.892Z,37.60
2022-12-15T16:56:33.816Z,36.97
2022-12-15T16:59:31.342Z,28.97
2022-12-15T17:01:48.299Z,36.80
2022-12-15T17:04:16.676Z,32.00
2022-12-15T17:06:43.641Z,40.80
2022-12-15T17:09:22.309Z,39.27
2022-12-15T17:11:50.228Z,34.90
2022-12-15T17:14:17.180Z,36.40
2022-12-15T17:16:44.179Z,33.37
2022-12-15T17:19:13.841Z,33.43
2022-12-15T17:21:50.014Z,34.60
2022-12-15T17:24:20.131Z,38.03
2022-12-15T17:26:47.612Z,37.70
2022-12-15T17:29:23.748Z,34.17
2022-12-15T17:31:51.283Z,38.13
2022-12-15T17:34:33.773Z,35.70
2022-12-15T17:37:04.633Z,33.37
2022-12-15T17:39:34.688Z,33.00
2022-12-15T17:42:03.352Z,32.50
2022-12-15T17:44:36.786Z,35.03
2022-12-15T17:47:08.245Z,35.60
2022-12-15T17:49:37.594Z,30.40
2022-12-15T17:52:28.429Z,28.57
2022-12-15T17:54:56.496Z,30.50
2022-12-15T17:57:23.403Z,32.90
2022-12-15T17:59:50.306Z,34.63
2022-12-15T18:02:17.422Z,34.03
2022-12-15T18:04:44.969Z,36.97
2022-12-15T18:07:23.828Z,36.90
2022-12-15T18:09:52.164Z,34.13
2022-12-15T18:12:26.151Z,38.23
2022-12-15T18:14:54.180Z,33.50
2022-12-15T18:17:21.235Z,30.90
2022-12-15T18:19:48.607Z,29.80
2022-12-15T18:22:23.137Z,41.10
2022-12-15T18:24:52.481Z,44.90
2022-12-15T18:27:30.032Z,33.67
2022-12-15T18:29:57.053Z,34.17
2022-12-15T18:32:26.914Z,30.10
2022-12-15T18:34:55.173Z,32.27
2022-12-15T18:37:24.940Z,33.93
2022-12-15T18:39:52.661Z,32.17
2022-12-15T18:42:21.448Z,35.10
2022-12-15T18:44:52.008Z,36.47
2022-12-15T18:47:23.826Z,36.97
2022-12-15T18:49:50.935Z,31.37
2022-12-15T18:52:23.787Z,31.63
2022-12-15T18:54:53.894Z,27.17
2022-12-15T18:57:38.187Z,33.00
2022-12-15T19:00:27.544Z,30.27
2022-12-15T19:02:57.703Z,33.10
2022-12-15T19:05:28.688Z,34.80
2022-12-15T19:08:00.678Z,31.47
2022-12-15T19:10:33.208Z,33.50
2022-12-15T19:13:00.854Z,39.43
2022-12-15T19:15:27.942Z,34.50
2022-12-15T19:18:13.753Z,28.23
2022-12-15T19:20:59.632Z,28.63
2022-12-15T19:23:26.543Z,27.30
2022-12-15T19:25:53.836Z,27.47
2022-12-15T19:28:23.978Z,34.73
2022-12-15T19:30:52.201Z,32.90
2022-12-15T19:33:19.935Z,25.70
2022-12-15T19:35:50.942Z,30.60
2022-12-15T19:38:29.153Z,32.77
2022-12-15T19:40:58.199Z,32.83
2022-12-15T19:43:26.195Z,34.67
2022-12-15T19:45:53.739Z,29.83
2022-12-15T19:48:23.594Z,34.90
2022-12-15T19:50:52.397Z,29.63
2022-12-15T19:53:28.147Z,41.40
2022-12-15T19:55:59.091Z,31.23
2022-12-15T19:58:32.138Z,29.67
2022-12-15T20:01:10.189Z,31.63
2022-12-15T20:03:37.833Z,29.63
2022-12-15T20:06:19.194Z,33.30
2022-12-15T20:08:48.749Z,27.67
2022-12-15T20:11:22.965Z,32.57
2022-12-15T20:13:50.929Z,29.90
2022-12-15T20:16:19.169Z,32.07
2022-12-15T20:18:50.726Z,28.30
2022-12-15T20:21:22.291Z,29.40
2022-12-15T20:24:02.240Z,27.73
2022-12-15T20:26:30.897Z,27.83
2022-12-15T20:28:58.549Z,25.40
2022-12-15T20:31:26.382Z,28.23
2022-12-15T20:33:53.786Z,23.47
2022-12-15T20:36:27.705Z,30.70
2022-12-15T20:38:55.379Z,34.30
2022-12-15T20:41:26.114Z,25.90
2022-12-15T20:43:54.647Z,27.80
2022-12-15T20:46:24.162Z,32.00
2022-12-15T20:48:54.832Z,26.93
2022-12-15T20:51:30.298Z,30.53
2022-12-15T20:54:00.657Z,29.40
2022-12-15T20:56:28.100Z,28.77
2022-12-15T20:58:58.085Z,23.97
2022-12-15T21:01:31.803Z,33.03
2022-12-15T21:04:02.241Z,27.27
2022-12-15T21:06:30.157Z,22.73
2022-12-15T21:08:57.343Z,27.20
2022-12-15T21:11:31.469Z,24.03
2022-12-15T21:14:03.965Z,24.43
2022-12-15T21:16:33.034Z,26.97
2022-12-15T21:19:22.425Z,24.20
2022-12-15T21:21:55.293Z,29.30
2022-12-15T21:24:28.229Z,22.57
2022-12-15T21:26:55.772Z,20.37
2022-12-15T21:29:26.256Z,28.00
2022-12-15T21:31:53.197Z,21.40
2022-12-15T21:34:20.217Z,23.70
2022-12-15T21:36:51.858Z,29.23
2022-12-15T21:39:36.405Z,27.97
2022-12-15T21:42:12.071Z,21.20
2022-12-15T21:44:38.944Z,25.67
2022-12-15T21:47:25.600Z,24.63
2022-12-15T21:49:53.012Z,23.80
2022-12-15T21:52:24.282Z,21.57
2022-12-15T21:54:51.225Z,23.73
2022-12-15T21:57:18.084Z,23.33
2022-12-15T21:59:45.031Z,23.13
2022-12-15T22:02:26.826Z,20.50
2022-12-15T22:04:55.043Z,22.33
2022-12-15T22:07:22.461Z,20.90
2022-12-15T22:09:49.453Z,23.33
2022-12-15T22:12:24.104Z,18.00
2022-12-15T22:14:52.026Z,21.03
2022-12-15T22:17:22.108Z,21.30
2022-12-15T22:19:49.052Z,23.50
2022-12-15T22:22:16.563Z,21.70
2022-12-15T22:24:43.773Z,18.47
2022-12-15T22:27:22.129Z,21.33
2022-12-15T22:29:50.239Z,19.10
2022-12-15T22:32:17.735Z,19.50
2022-12-15T22:34:44.814Z,18.80
2022-12-15T22:37:11.740Z,18.13
2022-12-15T22:39:38.717Z,20.50
2022-12-15T22:42:06.221Z,20.20
2022-12-15T22:44:37.215Z,18.80
2022-12-15T22:47:06.146Z,22.67
2022-12-15T22:49:38.258Z,15.73
2022-12-15T22:52:20.606Z,21.33
2022-12-15T22:54:48.611Z,16.23
2022-12-15T22:57:27.452Z,18.67
2022-12-15T23:00:02.990Z,20.63
2022-12-15T23:02:34.158Z,15.07
2022-12-15T23:05:01.911Z,19.27
2022-12-15T23:07:28.992Z,17.70
2022-12-15T23:10:14.256Z,20.03
2022-12-15T23:12:41.175Z,17.20
2022-12-15T23:15:27.847Z,18.23
2022-12-15T23:17:55.089Z,17.07
2022-12-15T23:20:22.097Z,16.67
2022-12-15T23:22:49.017Z,16.37
2022-12-15T23:25:16.170Z,14.97
2022-12-15T23:27:43.020Z,20.40
2022-12-15T23:30:12.700Z,17.30
2022-12-15T23:32:39.566Z,16.77
2022-12-15T23:35:07.333Z,20.03
2022-12-15T23:37:35.099Z,19.70
2022-12-15T23:40:02.476Z,17.00
2022-12-15T23:42:29.382Z,17.87
2022-12-15T23:44:56.327Z,14.13
2022-12-15T23:47:23.217Z,13.27
2022-12-15T23:49:50.217Z,14.37
2022-12-15T23:52:20.087Z,16.40
2022-12-15T23:54:47.057Z,16.03
2022-12-15T23:57:14.002Z,17.13
2022-12-15T23:59:40.951Z,16.40
